Suomigracht — PHBT — position and weather

sailwx.info

Track history (hours):
 
Tides and Currents Weather Stations Pressure Air Temp Water Temp Dewpoint Dewpoint Depression Visibility Wind Speed Wind Dir Waves Ship Positions

Suomigracht

Last reported at 2014-Nov-23 13:33 UTC. Time now 2014-Nov-24 01:29 UTC.
Position N 59°39' E 023°24'.

Length 173 m; beam 26 m.

Type: Cargo ship. MMSI: 246100000.

Date/timePositionNaut miles runAvg speedWind from/ knotsBaromVisibWave heightAir tempDewpointWater temp
2014-Nov-23 13:33N 59°39' E 023°24'1817.8
2014-Nov-23 12:33N 59°44' E 023°58'1717.4
2014-Nov-23 11:33N 59°48' E 024°32'6017.2
2014-Nov-23 08:04N 60°01' E 026°29'816.5
2014-Nov-23 07:33N 60°01' E 026°46'8 0.2
2014-Nov-21 14:21N 59°58' E 026°60'1113.8
2014-Nov-21 13:33N 59°59' E 026°38'5814.5
2014-Nov-21 09:33N 59°45' E 024°46'1714.7
2014-Nov-21 08:26N 59°41' E 024°14'1314.6
2014-Nov-21 07:34N 59°37' E 023°50'1614.8
2014-Nov-21 06:30N 59°32' E 023°21'  
2014-Nov-16 17:27N 59°34' E 021°14'1415.6
2014-Nov-16 16:33N 59°33' E 021°42'4715.4
2014-Nov-16 13:32N 59°38' E 023°13'1515.6
2014-Nov-16 12:33N 59°42' E 023°41'1515.3
2014-Nov-16 11:33N 59°51' E 024°07'10 0.2
2014-Nov-14 10:15N 59°60' E 024°00'710.5
2014-Nov-14 09:34N 59°55' E 024°11'1412.5
2014-Nov-14 08:29N 59°41' E 024°06'1415.0
2014-Nov-14 07:33N 59°36' E 023°41'  
Track history (hours):
 
Tides and Currents Weather Stations Pressure Air Temp Water Temp Dewpoint Dewpoint Depression Visibility Wind Speed Wind Dir Waves Ship Positions

Suomigracht

Last reported at 2014-Nov-23 13:33 UTC. Time now 2014-Nov-24 01:29 UTC.
Position N 59°39' E 023°24'.

Length 173 m; beam 26 m.

Type: Cargo ship. MMSI: 246100000.

Date/timePositionNaut miles runAvg speedWind from/ knotsBaromVisibWave heightAir tempDewpointWater temp
2014-Nov-23 13:33N 59°39' E 023°24'1817.8
2014-Nov-23 12:33N 59°44' E 023°58'1717.4
2014-Nov-23 11:33N 59°48' E 024°32'6017.2
2014-Nov-23 08:04N 60°01' E 026°29'816.5
2014-Nov-23 07:33N 60°01' E 026°46'8 0.2
2014-Nov-21 14:21N 59°58' E 026°60'1113.8
2014-Nov-21 13:33N 59°59' E 026°38'5814.5
2014-Nov-21 09:33N 59°45' E 024°46'1714.7
2014-Nov-21 08:26N 59°41' E 024°14'1314.6
2014-Nov-21 07:34N 59°37' E 023°50'1614.8
2014-Nov-21 06:30N 59°32' E 023°21'  
2014-Nov-16 17:27N 59°34' E 021°14'1415.6
2014-Nov-16 16:33N 59°33' E 021°42'4715.4
2014-Nov-16 13:32N 59°38' E 023°13'1515.6
2014-Nov-16 12:33N 59°42' E 023°41'1515.3
2014-Nov-16 11:33N 59°51' E 024°07'10 0.2
2014-Nov-14 10:15N 59°60' E 024°00'710.5
2014-Nov-14 09:34N 59°55' E 024°11'1412.5
2014-Nov-14 08:29N 59°41' E 024°06'1415.0
2014-Nov-14 07:33N 59°36' E 023°41'  

Dump ship's entire track history